sensor_id;sensor_type;location;lat;lon;timestamp;temperature;humidity
67974;DHT22;54756;51.140;6.952;2023-07-09T00:00:16;22.70;65.30
67974;DHT22;54756;51.140;6.952;2023-07-09T00:02:17;22.70;64.70
67974;DHT22;54756;51.140;6.952;2023-07-09T00:04:18;22.70;64.60
67974;DHT22;54756;51.140;6.952;2023-07-09T00:06:19;22.70;65.00
67974;DHT22;54756;51.140;6.952;2023-07-09T00:08:28;22.70;65.30
67974;DHT22;54756;51.140;6.952;2023-07-09T00:10:29;22.60;66.00
67974;DHT22;54756;51.140;6.952;2023-07-09T00:12:30;22.60;68.30
67974;DHT22;54756;51.140;6.952;2023-07-09T00:14:30;22.60;66.50
67974;DHT22;54756;51.140;6.952;2023-07-09T00:16:31;22.50;67.00
67974;DHT22;54756;51.140;6.952;2023-07-09T00:18:32;22.50;67.90
67974;DHT22;54756;51.140;6.952;2023-07-09T00:20:32;22.50;68.50
67974;DHT22;54756;51.140;6.952;2023-07-09T00:22:33;22.40;68.60
67974;DHT22;54756;51.140;6.952;2023-07-09T00:24:34;22.40;69.00
67974;DHT22;54756;51.140;6.952;2023-07-09T00:26:35;22.30;69.60
67974;DHT22;54756;51.140;6.952;2023-07-09T00:28:38;22.30;69.90
67974;DHT22;54756;51.140;6.952;2023-07-09T00:30:38;22.30;70.20
67974;DHT22;54756;51.140;6.952;2023-07-09T00:32:39;22.20;69.90
67974;DHT22;54756;51.140;6.952;2023-07-09T00:34:43;22.20;69.90
67974;DHT22;54756;51.140;6.952;2023-07-09T00:36:48;22.20;69.90
67974;DHT22;54756;51.140;6.952;2023-07-09T00:38:50;22.20;70.20
67974;DHT22;54756;51.140;6.952;2023-07-09T00:41:04;22.10;70.20
67974;DHT22;54756;51.140;6.952;2023-07-09T00:43:13;22.00;69.90
67974;DHT22;54756;51.140;6.952;2023-07-09T00:45:25;22.00;69.70
67974;DHT22;54756;51.140;6.952;2023-07-09T00:49:42;22.00;70.10
67974;DHT22;54756;51.140;6.952;2023-07-09T00:51:46;22.00;70.00
67974;DHT22;54756;51.140;6.952;2023-07-09T00:53:49;22.00;70.40
67974;DHT22;54756;51.140;6.952;2023-07-09T00:55:59;22.00;70.50
67974;DHT22;54756;51.140;6.952;2023-07-09T00:58:04;22.00;70.50
67974;DHT22;54756;51.140;6.952;2023-07-09T01:00:09;22.00;70.80
67974;DHT22;54756;51.140;6.952;2023-07-09T01:02:13;21.90;71.00
67974;DHT22;54756;51.140;6.952;2023-07-09T01:04:14;21.90;71.40
67974;DHT22;54756;51.140;6.952;2023-07-09T01:06:28;21.90;71.50
67974;DHT22;54756;51.140;6.952;2023-07-09T01:08:33;21.90;71.90
67974;DHT22;54756;51.140;6.952;2023-07-09T01:10:34;21.90;72.30
67974;DHT22;54756;51.140;6.952;2023-07-09T01:12:35;21.90;71.30
67974;DHT22;54756;51.140;6.952;2023-07-09T01:14:37;21.80;71.90
67974;DHT22;54756;51.140;6.952;2023-07-09T01:16:42;21.80;72.70
67974;DHT22;54756;51.140;6.952;2023-07-09T01:18:45;21.80;72.50
67974;DHT22;54756;51.140;6.952;2023-07-09T01:20:46;21.80;72.70
67974;DHT22;54756;51.140;6.952;2023-07-09T01:22:51;21.80;73.60
67974;DHT22;54756;51.140;6.952;2023-07-09T01:25:05;21.70;73.30
67974;DHT22;54756;51.140;6.952;2023-07-09T01:27:07;21.70;74.10
67974;DHT22;54756;51.140;6.952;2023-07-09T01:29:07;21.70;74.50
67974;DHT22;54756;51.140;6.952;2023-07-09T01:31:12;21.70;74.90
67974;DHT22;54756;51.140;6.952;2023-07-09T01:33:13;21.60;74.80
67974;DHT22;54756;51.140;6.952;2023-07-09T01:35:14;21.60;75.50
67974;DHT22;54756;51.140;6.952;2023-07-09T01:37:21;21.60;75.20
67974;DHT22;54756;51.140;6.952;2023-07-09T01:39:22;21.60;75.20
67974;DHT22;54756;51.140;6.952;2023-07-09T01:41:23;21.50;75.40
67974;DHT22;54756;51.140;6.952;2023-07-09T01:43:24;21.60;76.40
67974;DHT22;54756;51.140;6.952;2023-07-09T01:45:28;21.50;76.60
67974;DHT22;54756;51.140;6.952;2023-07-09T01:47:29;21.50;76.70
67974;DHT22;54756;51.140;6.952;2023-07-09T01:49:30;21.50;77.50
67974;DHT22;54756;51.140;6.952;2023-07-09T01:51:32;21.50;78.60
67974;DHT22;54756;51.140;6.952;2023-07-09T01:53:33;21.50;78.20
67974;DHT22;54756;51.140;6.952;2023-07-09T01:55:36;21.50;78.30
67974;DHT22;54756;51.140;6.952;2023-07-09T01:57:37;21.50;78.10
67974;DHT22;54756;51.140;6.952;2023-07-09T01:59:37;21.50;78.00
67974;DHT22;54756;51.140;6.952;2023-07-09T02:01:41;21.50;77.90
67974;DHT22;54756;51.140;6.952;2023-07-09T02:03:42;21.50;77.90
67974;DHT22;54756;51.140;6.952;2023-07-09T02:05:43;21.40;78.10
67974;DHT22;54756;51.140;6.952;2023-07-09T02:07:44;21.40;78.40
67974;DHT22;54756;51.140;6.952;2023-07-09T02:09:45;21.40;78.90
67974;DHT22;54756;51.140;6.952;2023-07-09T02:11:45;21.40;79.20
67974;DHT22;54756;51.140;6.952;2023-07-09T02:13:46;21.30;79.10
67974;DHT22;54756;51.140;6.952;2023-07-09T02:15:46;21.30;79.10
67974;DHT22;54756;51.140;6.952;2023-07-09T02:17:47;21.30;79.90
67974;DHT22;54756;51.140;6.952;2023-07-09T02:19:47;21.20;79.40
67974;DHT22;54756;51.140;6.952;2023-07-09T02:21:48;21.20;80.00
67974;DHT22;54756;51.140;6.952;2023-07-09T02:23:49;21.20;81.20
67974;DHT22;54756;51.140;6.952;2023-07-09T02:25:50;21.10;81.10
67974;DHT22;54756;51.140;6.952;2023-07-09T02:27:50;21.10;81.40
67974;DHT22;54756;51.140;6.952;2023-07-09T02:29:51;21.00;82.20
67974;DHT22;54756;51.140;6.952;2023-07-09T02:31:54;21.00;82.60
67974;DHT22;54756;51.140;6.952;2023-07-09T02:33:55;21.00;83.60
67974;DHT22;54756;51.140;6.952;2023-07-09T02:35:56;21.00;83.30
67974;DHT22;54756;51.140;6.952;2023-07-09T02:37:56;21.00;83.60
67974;DHT22;54756;51.140;6.952;2023-07-09T02:39:57;20.90;84.00
67974;DHT22;54756;51.140;6.952;2023-07-09T02:41:57;20.90;83.60
67974;DHT22;54756;51.140;6.952;2023-07-09T02:43:58;20.90;84.20
67974;DHT22;54756;51.140;6.952;2023-07-09T02:45:59;20.90;84.60
67974;DHT22;54756;51.140;6.952;2023-07-09T02:47:59;20.90;84.60
67974;DHT22;54756;51.140;6.952;2023-07-09T02:50:00;20.90;84.70
67974;DHT22;54756;51.140;6.952;2023-07-09T02:52:00;20.90;84.60
67974;DHT22;54756;51.140;6.952;2023-07-09T02:54:03;20.80;85.50
67974;DHT22;54756;51.140;6.952;2023-07-09T02:56:03;20.80;85.00
67974;DHT22;54756;51.140;6.952;2023-07-09T02:58:04;20.80;84.80
67974;DHT22;54756;51.140;6.952;2023-07-09T03:00:05;20.80;84.70
67974;DHT22;54756;51.140;6.952;2023-07-09T03:02:07;20.80;84.60
67974;DHT22;54756;51.140;6.952;2023-07-09T03:04:08;20.80;84.40
67974;DHT22;54756;51.140;6.952;2023-07-09T03:06:09;20.80;85.60
67974;DHT22;54756;51.140;6.952;2023-07-09T03:08:10;20.70;85.10
67974;DHT22;54756;51.140;6.952;2023-07-09T03:10:10;20.70;85.20
67974;DHT22;54756;51.140;6.952;2023-07-09T03:12:11;20.70;85.60
67974;DHT22;54756;51.140;6.952;2023-07-09T03:14:11;20.70;86.30
67974;DHT22;54756;51.140;6.952;2023-07-09T03:16:13;20.70;87.20
67974;DHT22;54756;51.140;6.952;2023-07-09T03:18:14;20.70;88.50
67974;DHT22;54756;51.140;6.952;2023-07-09T03:20:14;20.70;87.10
67974;DHT22;54756;51.140;6.952;2023-07-09T03:22:15;20.70;86.80
67974;DHT22;54756;51.140;6.952;2023-07-09T03:24:16;20.70;86.70
67974;DHT22;54756;51.140;6.952;2023-07-09T03:26:18;20.70;86.60
67974;DHT22;54756;51.140;6.952;2023-07-09T03:28:19;20.70;86.40
67974;DHT22;54756;51.140;6.952;2023-07-09T03:30:19;20.70;86.10
67974;DHT22;54756;51.140;6.952;2023-07-09T03:32:20;20.70;86.30
67974;DHT22;54756;51.140;6.952;2023-07-09T03:34:20;20.70;86.40
67974;DHT22;54756;51.140;6.952;2023-07-09T03:36:21;20.70;86.60
67974;DHT22;54756;51.140;6.952;2023-07-09T03:38:22;20.60;86.20
67974;DHT22;54756;51.140;6.952;2023-07-09T03:40:23;20.60;86.30
67974;DHT22;54756;51.140;6.952;2023-07-09T03:42:24;20.60;86.60
67974;DHT22;54756;51.140;6.952;2023-07-09T03:44:25;20.60;86.50
67974;DHT22;54756;51.140;6.952;2023-07-09T03:46:26;20.60;87.00
67974;DHT22;54756;51.140;6.952;2023-07-09T03:48:27;20.60;86.70
67974;DHT22;54756;51.140;6.952;2023-07-09T03:50:27;20.60;87.00
67974;DHT22;54756;51.140;6.952;2023-07-09T03:52:28;20.70;86.90
67974;DHT22;54756;51.140;6.952;2023-07-09T03:54:28;20.70;86.90
67974;DHT22;54756;51.140;6.952;2023-07-09T03:56:29;20.70;87.30
67974;DHT22;54756;51.140;6.952;2023-07-09T03:58:29;20.70;87.00
67974;DHT22;54756;51.140;6.952;2023-07-09T04:00:31;20.70;86.90
67974;DHT22;54756;51.140;6.952;2023-07-09T04:02:31;20.70;87.20
67974;DHT22;54756;51.140;6.952;2023-07-09T04:04:32;20.70;87.10
67974;DHT22;54756;51.140;6.952;2023-07-09T04:06:32;20.70;87.90
67974;DHT22;54756;51.140;6.952;2023-07-09T04:08:33;20.70;87.80
67974;DHT22;54756;51.140;6.952;2023-07-09T04:10:33;20.70;87.90
67974;DHT22;54756;51.140;6.952;2023-07-09T04:12:34;20.70;88.20
67974;DHT22;54756;51.140;6.952;2023-07-09T04:14:35;20.70;88.10
67974;DHT22;54756;51.140;6.952;2023-07-09T04:16:35;20.70;88.20
67974;DHT22;54756;51.140;6.952;2023-07-09T04:18:36;20.70;88.50
67974;DHT22;54756;51.140;6.952;2023-07-09T04:20:37;20.70;89.40
67974;DHT22;54756;51.140;6.952;2023-07-09T04:22:37;20.80;90.00
67974;DHT22;54756;51.140;6.952;2023-07-09T04:24:38;20.80;90.00
67974;DHT22;54756;51.140;6.952;2023-07-09T04:26:38;20.80;90.20
67974;DHT22;54756;51.140;6.952;2023-07-09T04:28:40;20.80;90.00
67974;DHT22;54756;51.140;6.952;2023-07-09T04:30:49;20.80;90.20
67974;DHT22;54756;51.140;6.952;2023-07-09T04:32:50;20.80;90.20
67974;DHT22;54756;51.140;6.952;2023-07-09T04:34:50;20.80;90.20
67974;DHT22;54756;51.140;6.952;2023-07-09T04:36:51;20.90;90.10
67974;DHT22;54756;51.140;6.952;2023-07-09T04:38:52;20.90;90.20
67974;DHT22;54756;51.140;6.952;2023-07-09T04:40:52;20.90;90.50
67974;DHT22;54756;51.140;6.952;2023-07-09T04:42:53;20.90;90.10
67974;DHT22;54756;51.140;6.952;2023-07-09T04:44:53;21.00;90.40
67974;DHT22;54756;51.140;6.952;2023-07-09T04:46:54;21.00;90.80
67974;DHT22;54756;51.140;6.952;2023-07-09T04:48:54;21.00;90.60
67974;DHT22;54756;51.140;6.952;2023-07-09T04:50:56;21.00;90.50
67974;DHT22;54756;51.140;6.952;2023-07-09T04:52:56;21.00;90.30
67974;DHT22;54756;51.140;6.952;2023-07-09T04:54:57;21.10;90.10
67974;DHT22;54756;51.140;6.952;2023-07-09T04:56:58;21.10;90.20
67974;DHT22;54756;51.140;6.952;2023-07-09T04:58:58;21.20;90.10
67974;DHT22;54756;51.140;6.952;2023-07-09T05:00:59;21.20;89.30
67974;DHT22;54756;51.140;6.952;2023-07-09T05:03:00;21.30;88.40
67974;DHT22;54756;51.140;6.952;2023-07-09T05:05:01;21.40;87.70
67974;DHT22;54756;51.140;6.952;2023-07-09T05:07:01;21.50;87.20
67974;DHT22;54756;51.140;6.952;2023-07-09T05:09:02;21.50;88.20
67974;DHT22;54756;51.140;6.952;2023-07-09T05:11:02;21.50;87.00
67974;DHT22;54756;51.140;6.952;2023-07-09T05:13:03;21.60;87.00
67974;DHT22;54756;51.140;6.952;2023-07-09T05:15:03;21.60;87.00
67974;DHT22;54756;51.140;6.952;2023-07-09T05:17:04;21.60;86.40
67974;DHT22;54756;51.140;6.952;2023-07-09T05:19:07;21.70;86.10
67974;DHT22;54756;51.140;6.952;2023-07-09T05:21:08;21.70;85.70
67974;DHT22;54756;51.140;6.952;2023-07-09T05:23:10;21.80;84.90
67974;DHT22;54756;51.140;6.952;2023-07-09T05:25:11;21.80;84.20
67974;DHT22;54756;51.140;6.952;2023-07-09T05:27:12;21.90;83.80
67974;DHT22;54756;51.140;6.952;2023-07-09T05:29:12;22.00;83.50
67974;DHT22;54756;51.140;6.952;2023-07-09T05:31:13;22.00;82.90
67974;DHT22;54756;51.140;6.952;2023-07-09T05:33:14;22.10;83.20
67974;DHT22;54756;51.140;6.952;2023-07-09T05:35:14;22.20;82.40
67974;DHT22;54756;51.140;6.952;2023-07-09T05:37:15;22.30;81.60
67974;DHT22;54756;51.140;6.952;2023-07-09T05:39:15;22.30;80.80
67974;DHT22;54756;51.140;6.952;2023-07-09T05:41:16;22.40;79.80
67974;DHT22;54756;51.140;6.952;2023-07-09T05:43:17;22.50;79.00
67974;DHT22;54756;51.140;6.952;2023-07-09T05:45:17;22.50;78.30
67974;DHT22;54756;51.140;6.952;2023-07-09T05:47:18;22.60;77.70
67974;DHT22;54756;51.140;6.952;2023-07-09T05:49:19;22.70;77.20
67974;DHT22;54756;51.140;6.952;2023-07-09T05:51:19;22.70;76.60
67974;DHT22;54756;51.140;6.952;2023-07-09T05:53:22;22.80;76.30
67974;DHT22;54756;51.140;6.952;2023-07-09T05:55:22;22.80;75.60
67974;DHT22;54756;51.140;6.952;2023-07-09T05:57:23;22.90;75.20
67974;DHT22;54756;51.140;6.952;2023-07-09T05:59:23;23.00;75.50
67974;DHT22;54756;51.140;6.952;2023-07-09T06:01:24;23.00;75.20
67974;DHT22;54756;51.140;6.952;2023-07-09T06:03:27;23.10;75.20
67974;DHT22;54756;51.140;6.952;2023-07-09T06:05:28;23.10;75.20
67974;DHT22;54756;51.140;6.952;2023-07-09T06:07:29;23.10;74.30
67974;DHT22;54756;51.140;6.952;2023-07-09T06:09:30;23.20;73.30
67974;DHT22;54756;51.140;6.952;2023-07-09T06:11:31;23.20;72.60
67974;DHT22;54756;51.140;6.952;2023-07-09T06:13:32;23.30;71.70
67974;DHT22;54756;51.140;6.952;2023-07-09T06:15:33;23.30;71.10
67974;DHT22;54756;51.140;6.952;2023-07-09T06:17:33;23.40;71.20
67974;DHT22;54756;51.140;6.952;2023-07-09T06:19:34;23.50;70.60
67974;DHT22;54756;51.140;6.952;2023-07-09T06:21:34;23.50;70.50
67974;DHT22;54756;51.140;6.952;2023-07-09T06:23:35;23.60;69.70
67974;DHT22;54756;51.140;6.952;2023-07-09T06:25:38;23.60;68.40
67974;DHT22;54756;51.140;6.952;2023-07-09T06:27:38;23.60;67.50
67974;DHT22;54756;51.140;6.952;2023-07-09T06:29:39;23.70;66.50
67974;DHT22;54756;51.140;6.952;2023-07-09T06:31:39;23.80;65.50
67974;DHT22;54756;51.140;6.952;2023-07-09T06:33:40;23.80;64.70
67974;DHT22;54756;51.140;6.952;2023-07-09T06:35:51;23.80;63.90
67974;DHT22;54756;51.140;6.952;2023-07-09T06:37:52;23.90;62.80
67974;DHT22;54756;51.140;6.952;2023-07-09T06:39:53;24.00;61.80
67974;DHT22;54756;51.140;6.952;2023-07-09T06:41:53;24.00;61.50
67974;DHT22;54756;51.140;6.952;2023-07-09T06:43:54;24.10;61.20
67974;DHT22;54756;51.140;6.952;2023-07-09T06:45:57;24.20;61.40
67974;DHT22;54756;51.140;6.952;2023-07-09T06:47:59;24.20;61.70
67974;DHT22;54756;51.140;6.952;2023-07-09T06:50:00;24.30;61.40
67974;DHT22;54756;51.140;6.952;2023-07-09T06:52:01;24.30;60.40
67974;DHT22;54756;51.140;6.952;2023-07-09T06:54:01;24.40;59.30
67974;DHT22;54756;51.140;6.952;2023-07-09T06:56:02;24.40;57.90
67974;DHT22;54756;51.140;6.952;2023-07-09T06:58:03;24.30;57.20
67974;DHT22;54756;51.140;6.952;2023-07-09T07:00:04;24.20;56.80
67974;DHT22;54756;51.140;6.952;2023-07-09T07:02:05;24.20;56.70
67974;DHT22;54756;51.140;6.952;2023-07-09T07:04:05;24.10;56.60
67974;DHT22;54756;51.140;6.952;2023-07-09T07:06:06;24.00;56.70
67974;DHT22;54756;51.140;6.952;2023-07-09T07:08:07;24.00;56.70
67974;DHT22;54756;51.140;6.952;2023-07-09T07:10:08;24.00;57.00
67974;DHT22;54756;51.140;6.952;2023-07-09T07:12:09;23.90;56.90
67974;DHT22;54756;51.140;6.952;2023-07-09T07:14:10;23.90;56.90
67974;DHT22;54756;51.140;6.952;2023-07-09T07:16:11;23.90;56.70
67974;DHT22;54756;51.140;6.952;2023-07-09T07:18:12;23.90;56.70
67974;DHT22;54756;51.140;6.952;2023-07-09T07:20:13;23.80;56.60
67974;DHT22;54756;51.140;6.952;2023-07-09T07:22:14;23.80;56.60
67974;DHT22;54756;51.140;6.952;2023-07-09T07:24:15;23.80;56.60
67974;DHT22;54756;51.140;6.952;2023-07-09T07:26:15;23.80;56.80
67974;DHT22;54756;51.140;6.952;2023-07-09T07:28:16;23.80;56.70
67974;DHT22;54756;51.140;6.952;2023-07-09T07:30:17;23.80;57.70
67974;DHT22;54756;51.140;6.952;2023-07-09T07:32:17;23.80;58.80
67974;DHT22;54756;51.140;6.952;2023-07-09T07:34:18;23.80;59.80
67974;DHT22;54756;51.140;6.952;2023-07-09T07:36:18;23.90;60.80
67974;DHT22;54756;51.140;6.952;2023-07-09T07:38:19;23.90;61.30
67974;DHT22;54756;51.140;6.952;2023-07-09T07:40:20;23.90;62.20
67974;DHT22;54756;51.140;6.952;2023-07-09T07:42:21;23.90;63.40
67974;DHT22;54756;51.140;6.952;2023-07-09T07:44:22;23.90;63.00
67974;DHT22;54756;51.140;6.952;2023-07-09T07:46:23;23.90;63.30
67974;DHT22;54756;51.140;6.952;2023-07-09T07:48:23;23.90;63.50
67974;DHT22;54756;51.140;6.952;2023-07-09T07:50:24;23.90;63.70
67974;DHT22;54756;51.140;6.952;2023-07-09T07:52:24;24.00;64.00
67974;DHT22;54756;51.140;6.952;2023-07-09T07:54:26;24.00;64.30
67974;DHT22;54756;51.140;6.952;2023-07-09T07:56:26;24.00;64.50
67974;DHT22;54756;51.140;6.952;2023-07-09T07:58:27;24.00;64.80
67974;DHT22;54756;51.140;6.952;2023-07-09T08:00:27;24.00;64.90
67974;DHT22;54756;51.140;6.952;2023-07-09T08:02:28;24.00;65.50
67974;DHT22;54756;51.140;6.952;2023-07-09T08:04:28;24.00;65.60
67974;DHT22;54756;51.140;6.952;2023-07-09T08:06:29;24.00;65.70
67974;DHT22;54756;51.140;6.952;2023-07-09T08:08:31;24.00;67.80
67974;DHT22;54756;51.140;6.952;2023-07-09T08:10:32;24.00;68.80
67974;DHT22;54756;51.140;6.952;2023-07-09T08:12:32;24.10;70.20
67974;DHT22;54756;51.140;6.952;2023-07-09T08:14:33;24.10;71.40
67974;DHT22;54756;51.140;6.952;2023-07-09T08:16:33;24.10;71.90
67974;DHT22;54756;51.140;6.952;2023-07-09T08:18:34;24.10;72.60
67974;DHT22;54756;51.140;6.952;2023-07-09T08:20:35;24.10;72.80
67974;DHT22;54756;51.140;6.952;2023-07-09T08:22:35;24.20;73.00
67974;DHT22;54756;51.140;6.952;2023-07-09T08:24:36;24.20;72.00
67974;DHT22;54756;51.140;6.952;2023-07-09T08:26:37;24.20;71.40
67974;DHT22;54756;51.140;6.952;2023-07-09T08:28:38;24.20;70.70
67974;DHT22;54756;51.140;6.952;2023-07-09T08:30:38;24.20;70.10
67974;DHT22;54756;51.140;6.952;2023-07-09T08:32:39;24.20;70.60
67974;DHT22;54756;51.140;6.952;2023-07-09T08:34:40;24.20;69.30
67974;DHT22;54756;51.140;6.952;2023-07-09T08:36:41;24.30;69.00
67974;DHT22;54756;51.140;6.952;2023-07-09T08:38:42;24.30;68.70
67974;DHT22;54756;51.140;6.952;2023-07-09T08:43:10;24.30;68.20
67974;DHT22;54756;51.140;6.952;2023-07-09T08:49:43;24.40;67.10
67974;DHT22;54756;51.140;6.952;2023-07-09T08:51:44;24.40;67.10
67974;DHT22;54756;51.140;6.952;2023-07-09T08:53:56;24.40;67.10
67974;DHT22;54756;51.140;6.952;2023-07-09T08:55:58;24.40;67.10
67974;DHT22;54756;51.140;6.952;2023-07-09T08:58:05;24.40;66.90
67974;DHT22;54756;51.140;6.952;2023-07-09T09:00:28;24.50;66.80
67974;DHT22;54756;51.140;6.952;2023-07-09T09:02:59;24.50;66.70
67974;DHT22;54756;51.140;6.952;2023-07-09T09:05:03;24.50;66.40
67974;DHT22;54756;51.140;6.952;2023-07-09T09:07:18;24.50;66.00
67974;DHT22;54756;51.140;6.952;2023-07-09T09:09:38;24.60;65.80
67974;DHT22;54756;51.140;6.952;2023-07-09T09:11:48;24.60;65.50
67974;DHT22;54756;51.140;6.952;2023-07-09T09:13:55;24.60;65.60
67974;DHT22;54756;51.140;6.952;2023-07-09T09:16:00;24.60;65.50
67974;DHT22;54756;51.140;6.952;2023-07-09T09:20:20;24.60;65.30
67974;DHT22;54756;51.140;6.952;2023-07-09T09:22:30;24.60;65.00
67974;DHT22;54756;51.140;6.952;2023-07-09T09:24:41;24.60;64.60
67974;DHT22;54756;51.140;6.952;2023-07-09T09:26:48;24.70;64.70
67974;DHT22;54756;51.140;6.952;2023-07-09T09:28:52;24.70;64.50
67974;DHT22;54756;51.140;6.952;2023-07-09T09:30:53;24.70;64.40
67974;DHT22;54756;51.140;6.952;2023-07-09T09:32:54;24.80;64.50
67974;DHT22;54756;51.140;6.952;2023-07-09T09:34:56;24.80;64.40
67974;DHT22;54756;51.140;6.952;2023-07-09T09:36:58;24.80;64.30
67974;DHT22;54756;51.140;6.952;2023-07-09T09:39:02;24.80;64.10
67974;DHT22;54756;51.140;6.952;2023-07-09T09:41:02;24.80;64.00
67974;DHT22;54756;51.140;6.952;2023-07-09T09:43:16;24.80;64.00
67974;DHT22;54756;51.140;6.952;2023-07-09T09:45:24;24.90;64.20
67974;DHT22;54756;51.140;6.952;2023-07-09T09:47:26;24.90;64.20
67974;DHT22;54756;51.140;6.952;2023-07-09T09:49:28;24.90;64.20
67974;DHT22;54756;51.140;6.952;2023-07-09T09:51:29;24.90;63.80
67974;DHT22;54756;51.140;6.952;2023-07-09T09:53:37;24.90;63.60
67974;DHT22;54756;51.140;6.952;2023-07-09T09:55:38;25.00;63.60
67974;DHT22;54756;51.140;6.952;2023-07-09T09:57:48;24.90;64.10
67974;DHT22;54756;51.140;6.952;2023-07-09T09:59:49;25.00;63.30
67974;DHT22;54756;51.140;6.952;2023-07-09T10:02:01;25.00;63.30
67974;DHT22;54756;51.140;6.952;2023-07-09T10:04:04;25.00;63.10
67974;DHT22;54756;51.140;6.952;2023-07-09T10:10:46;25.10;62.60
67974;DHT22;54756;51.140;6.952;2023-07-09T10:17:54;25.10;62.60
67974;DHT22;54756;51.140;6.952;2023-07-09T10:20:06;25.10;62.50
67974;DHT22;54756;51.140;6.952;2023-07-09T10:22:28;25.20;61.50
67974;DHT22;54756;51.140;6.952;2023-07-09T10:24:42;25.20;60.90
67974;DHT22;54756;51.140;6.952;2023-07-09T10:26:48;25.20;60.90
67974;DHT22;54756;51.140;6.952;2023-07-09T10:40:47;25.30;58.90
67974;DHT22;54756;51.140;6.952;2023-07-09T10:42:54;25.30;58.60
67974;DHT22;54756;51.140;6.952;2023-07-09T10:45:02;25.40;58.10
67974;DHT22;54756;51.140;6.952;2023-07-09T10:47:25;25.40;57.70
67974;DHT22;54756;51.140;6.952;2023-07-09T10:49:33;25.40;57.70
67974;DHT22;54756;51.140;6.952;2023-07-09T10:51:49;25.40;58.00
67974;DHT22;54756;51.140;6.952;2023-07-09T10:53:57;25.50;58.10
67974;DHT22;54756;51.140;6.952;2023-07-09T10:56:10;25.50;57.80
67974;DHT22;54756;51.140;6.952;2023-07-09T10:58:33;25.50;58.00
67974;DHT22;54756;51.140;6.952;2023-07-09T11:00:39;25.50;58.00
67974;DHT22;54756;51.140;6.952;2023-07-09T11:02:42;25.60;58.10
67974;DHT22;54756;51.140;6.952;2023-07-09T11:04:47;25.60;57.80
67974;DHT22;54756;51.140;6.952;2023-07-09T11:06:50;25.60;57.70
67974;DHT22;54756;51.140;6.952;2023-07-09T11:08:52;25.60;57.30
67974;DHT22;54756;51.140;6.952;2023-07-09T11:10:59;25.60;57.40
67974;DHT22;54756;51.140;6.952;2023-07-09T11:13:11;25.60;56.80
67974;DHT22;54756;51.140;6.952;2023-07-09T11:15:20;25.70;56.60
67974;DHT22;54756;51.140;6.952;2023-07-09T11:17:22;25.70;56.50
67974;DHT22;54756;51.140;6.952;2023-07-09T11:19:23;25.70;55.80
67974;DHT22;54756;51.140;6.952;2023-07-09T11:21:25;25.80;55.50
67974;DHT22;54756;51.140;6.952;2023-07-09T11:23:25;25.80;55.60
67974;DHT22;54756;51.140;6.952;2023-07-09T11:26:00;25.80;55.40
67974;DHT22;54756;51.140;6.952;2023-07-09T11:27:51;25.80;54.70
67974;DHT22;54756;51.140;6.952;2023-07-09T11:30:15;25.90;54.20
67974;DHT22;54756;51.140;6.952;2023-07-09T11:32:20;25.90;54.00
67974;DHT22;54756;51.140;6.952;2023-07-09T11:34:27;25.90;54.20
67974;DHT22;54756;51.140;6.952;2023-07-09T11:36:30;25.90;54.20
67974;DHT22;54756;51.140;6.952;2023-07-09T11:38:42;25.90;54.10
67974;DHT22;54756;51.140;6.952;2023-07-09T11:40:50;26.00;53.70
67974;DHT22;54756;51.140;6.952;2023-07-09T11:42:56;26.00;53.70
67974;DHT22;54756;51.140;6.952;2023-07-09T11:45:08;26.00;53.70
67974;DHT22;54756;51.140;6.952;2023-07-09T11:48:13;26.10;53.60
67974;DHT22;54756;51.140;6.952;2023-07-09T11:49:51;26.10;53.60
67974;DHT22;54756;51.140;6.952;2023-07-09T11:51:55;26.20;53.70
67974;DHT22;54756;51.140;6.952;2023-07-09T11:53:58;26.20;53.70
67974;DHT22;54756;51.140;6.952;2023-07-09T11:56:00;26.20;53.50
67974;DHT22;54756;51.140;6.952;2023-07-09T11:58:03;26.20;53.10
67974;DHT22;54756;51.140;6.952;2023-07-09T12:00:03;26.30;52.50
67974;DHT22;54756;51.140;6.952;2023-07-09T12:02:05;26.30;52.50
67974;DHT22;54756;51.140;6.952;2023-07-09T12:04:06;26.30;52.40
67974;DHT22;54756;51.140;6.952;2023-07-09T12:06:22;26.30;52.40
67974;DHT22;54756;51.140;6.952;2023-07-09T12:10:35;26.40;52.50
67974;DHT22;54756;51.140;6.952;2023-07-09T12:12:36;26.30;52.20
67974;DHT22;54756;51.140;6.952;2023-07-09T12:14:42;26.40;52.60
67974;DHT22;54756;51.140;6.952;2023-07-09T12:16:47;26.40;51.70
67974;DHT22;54756;51.140;6.952;2023-07-09T12:18:48;26.40;51.40
67974;DHT22;54756;51.140;6.952;2023-07-09T12:20:53;26.50;51.20
67974;DHT22;54756;51.140;6.952;2023-07-09T12:22:53;26.50;51.40
67974;DHT22;54756;51.140;6.952;2023-07-09T12:24:54;26.50;51.30
67974;DHT22;54756;51.140;6.952;2023-07-09T12:27:00;26.50;50.80
67974;DHT22;54756;51.140;6.952;2023-07-09T12:29:01;26.60;50.40
67974;DHT22;54756;51.140;6.952;2023-07-09T12:31:02;26.60;49.90
67974;DHT22;54756;51.140;6.952;2023-07-09T12:33:07;26.60;49.70
67974;DHT22;54756;51.140;6.952;2023-07-09T12:35:12;26.70;49.80
67974;DHT22;54756;51.140;6.952;2023-07-09T12:37:15;26.60;49.70
67974;DHT22;54756;51.140;6.952;2023-07-09T12:39:19;26.70;49.70
67974;DHT22;54756;51.140;6.952;2023-07-09T12:41:39;26.70;49.60
67974;DHT22;54756;51.140;6.952;2023-07-09T12:43:40;26.70;49.40
67974;DHT22;54756;51.140;6.952;2023-07-09T12:45:40;26.70;49.40
67974;DHT22;54756;51.140;6.952;2023-07-09T12:47:41;26.70;49.40
67974;DHT22;54756;51.140;6.952;2023-07-09T12:49:44;26.70;49.30
67974;DHT22;54756;51.140;6.952;2023-07-09T12:51:45;26.70;50.00
67974;DHT22;54756;51.140;6.952;2023-07-09T12:53:46;26.80;49.30
67974;DHT22;54756;51.140;6.952;2023-07-09T12:55:47;26.80;49.10
67974;DHT22;54756;51.140;6.952;2023-07-09T12:57:49;26.80;49.20
67974;DHT22;54756;51.140;6.952;2023-07-09T12:59:50;26.80;49.10
67974;DHT22;54756;51.140;6.952;2023-07-09T13:01:54;26.80;49.20
67974;DHT22;54756;51.140;6.952;2023-07-09T13:03:55;26.80;49.10
67974;DHT22;54756;51.140;6.952;2023-07-09T13:08:01;26.80;48.90
67974;DHT22;54756;51.140;6.952;2023-07-09T13:10:26;26.80;48.70
67974;DHT22;54756;51.140;6.952;2023-07-09T13:12:31;26.80;48.70
67974;DHT22;54756;51.140;6.952;2023-07-09T13:14:31;26.80;48.40
67974;DHT22;54756;51.140;6.952;2023-07-09T13:16:39;26.80;48.30
67974;DHT22;54756;51.140;6.952;2023-07-09T13:18:40;26.80;48.10
67974;DHT22;54756;51.140;6.952;2023-07-09T13:20:45;26.80;48.10
67974;DHT22;54756;51.140;6.952;2023-07-09T13:22:49;26.80;48.30
67974;DHT22;54756;51.140;6.952;2023-07-09T13:24:49;26.80;48.30
67974;DHT22;54756;51.140;6.952;2023-07-09T13:26:50;26.80;48.30
67974;DHT22;54756;51.140;6.952;2023-07-09T13:28:51;26.80;48.60
67974;DHT22;54756;51.140;6.952;2023-07-09T13:30:59;26.80;48.40
67974;DHT22;54756;51.140;6.952;2023-07-09T13:33:00;26.80;48.30